WMT13DU LROP-LUKK
Flight info
| Callsign | WMT13DU |
|---|---|
| Flight time | 0h 40m |
| Altitude | 29000 |
| Route | DENAK DCT URELA DCT FOCSA DCT KENUX DCT BCU DCT BUSES |
| Aircraft | A321/M-SDE3FGHIRWY/LB1 |
Departure
| Time | 2026-05-04 13:34 |
|---|---|
| Airport | Bucharest Henri Coandă International Airport (LROP) |
Arrival
| Time | 2026-05-04 14:14 |
|---|---|
| Airport | Chişinău International Airport (LUKK) |
| Time | Latitude | Longitude | Altitude | Speed | Heading |
|---|---|---|---|---|---|
| 2026-05-04 13:15 | 44.56877 | 26.07926 | 313 ft | 0 kts | 265° |
| 2026-05-04 13:27 | 44.56878 | 26.07930 | 313 ft | 3 kts | 264° |
| 2026-05-04 13:28 | 44.56884 | 26.07964 | 313 ft | 4 kts | 233° |
| 2026-05-04 13:28 | 44.56903 | 26.07985 | 312 ft | 3 kts | 192° |
| 2026-05-04 13:28 | 44.56908 | 26.07986 | 313 ft | 0 kts | 189° |
| 2026-05-04 13:31 | 44.56878 | 26.07982 | 312 ft | 10 kts | 181° |
| 2026-05-04 13:31 | 44.56795 | 26.07996 | 312 ft | 13 kts | 169° |
| 2026-05-04 13:31 | 44.56736 | 26.07910 | 312 ft | 14 kts | 252° |
| 2026-05-04 13:32 | 44.56707 | 26.07766 | 311 ft | 16 kts | 255° |
| 2026-05-04 13:32 | 44.56633 | 26.07665 | 310 ft | 17 kts | 177° |
| 2026-05-04 13:32 | 44.56506 | 26.07684 | 309 ft | 19 kts | 171° |
| 2026-05-04 13:32 | 44.56476 | 26.07785 | 310 ft | 10 kts | 81° |
| 2026-05-04 13:33 | 44.56480 | 26.07883 | 310 ft | 10 kts | 84° |
| 2026-05-04 13:33 | 44.56489 | 26.08002 | 312 ft | 23 kts | 84° |
| 2026-05-04 13:33 | 44.56536 | 26.08616 | 315 ft | 101 kts | 84° |
| 2026-05-04 13:33 | 44.56632 | 26.09902 | 350 ft | 157 kts | 85° |
| 2026-05-04 13:34 | 44.56738 | 26.11392 | 1097 ft | 153 kts | 83° |
| 2026-05-04 13:34 | 44.56853 | 26.12904 | 1824 ft | 157 kts | 82° |
| 2026-05-04 13:34 | 44.56977 | 26.14494 | 2385 ft | 171 kts | 82° |
| 2026-05-04 13:34 | 44.57115 | 26.16213 | 2770 ft | 188 kts | 82° |
| 2026-05-04 13:35 | 44.57268 | 26.18101 | 3189 ft | 202 kts | 82° |
| 2026-05-04 13:35 | 44.57597 | 26.22440 | 3610 ft | 247 kts | 82° |
| 2026-05-04 13:35 | 44.57770 | 26.24894 | 4219 ft | 260 kts | 81° |
| 2026-05-04 13:36 | 44.57942 | 26.27446 | 5200 ft | 258 kts | 79° |
| 2026-05-04 13:36 | 44.58119 | 26.29947 | 6185 ft | 258 kts | 78° |
| 2026-05-04 13:36 | 44.58305 | 26.32446 | 7081 ft | 258 kts | 78° |
| 2026-05-04 13:36 | 44.58631 | 26.34898 | 7901 ft | 254 kts | 63° |
| 2026-05-04 13:37 | 44.59589 | 26.36930 | 8708 ft | 250 kts | 41° |
| 2026-05-04 13:37 | 44.61069 | 26.38198 | 9517 ft | 253 kts | 19° |
| 2026-05-04 13:37 | 44.62832 | 26.38467 | 10294 ft | 262 kts | 356° |
| 2026-05-04 13:37 | 44.64558 | 26.37614 | 10994 ft | 277 kts | 332° |
| 2026-05-04 13:38 | 44.66081 | 26.35719 | 11441 ft | 302 kts | 321° |
| 2026-05-04 13:38 | 44.67630 | 26.33636 | 11647 ft | 321 kts | 327° |
| 2026-05-04 13:38 | 44.69627 | 26.32081 | 11961 ft | 327 kts | 346° |
| 2026-05-04 13:38 | 44.71828 | 26.31501 | 12560 ft | 328 kts | 358° |
| 2026-05-04 13:39 | 44.74144 | 26.31145 | 13273 ft | 332 kts | 358° |
| 2026-05-04 13:39 | 44.76459 | 26.30810 | 13953 ft | 337 kts | 358° |
| 2026-05-04 13:39 | 44.78775 | 26.30485 | 14555 ft | 341 kts | 358° |
| 2026-05-04 13:39 | 44.81151 | 26.30151 | 15190 ft | 345 kts | 358° |
| 2026-05-04 13:40 | 44.83556 | 26.29809 | 15824 ft | 350 kts | 358° |
| 2026-05-04 13:40 | 44.85989 | 26.29456 | 16476 ft | 354 kts | 358° |
| 2026-05-04 13:40 | 44.88452 | 26.29373 | 17076 ft | 354 kts | 8° |
| 2026-05-04 13:40 | 44.90853 | 26.30118 | 17672 ft | 355 kts | 22° |
| 2026-05-04 13:41 | 44.93061 | 26.31674 | 18267 ft | 357 kts | 35° |
| 2026-05-04 13:41 | 44.94953 | 26.33951 | 18785 ft | 360 kts | 48° |
| 2026-05-04 13:41 | 44.96523 | 26.36732 | 19297 ft | 365 kts | 52° |
| 2026-05-04 13:42 | 45.00077 | 26.41915 | 20311 ft | 374 kts | 34° |
| 2026-05-04 13:42 | 45.02369 | 26.43692 | 20828 ft | 379 kts | 23° |
| 2026-05-04 13:42 | 45.04909 | 26.44765 | 21352 ft | 385 kts | 12° |
| 2026-05-04 13:42 | 45.07559 | 26.45426 | 21881 ft | 389 kts | 11° |
| 2026-05-04 13:43 | 45.10236 | 26.46090 | 22399 ft | 393 kts | 11° |
| 2026-05-04 13:43 | 45.12940 | 26.46767 | 22892 ft | 397 kts | 10° |
| 2026-05-04 13:43 | 45.15464 | 26.47402 | 23340 ft | 400 kts | 10° |
| 2026-05-04 13:43 | 45.18218 | 26.48099 | 23777 ft | 404 kts | 10° |
| 2026-05-04 13:44 | 45.21000 | 26.48806 | 24169 ft | 408 kts | 10° |
| 2026-05-04 13:44 | 45.23805 | 26.49519 | 24574 ft | 411 kts | 10° |
| 2026-05-04 13:44 | 45.26635 | 26.50236 | 24976 ft | 414 kts | 10° |
| 2026-05-04 13:44 | 45.29473 | 26.50953 | 25457 ft | 415 kts | 10° |
| 2026-05-04 13:45 | 45.32327 | 26.51677 | 25820 ft | 419 kts | 10° |
| 2026-05-04 13:45 | 45.35211 | 26.52413 | 26193 ft | 423 kts | 10° |
| 2026-05-04 13:45 | 45.38117 | 26.53154 | 26588 ft | 426 kts | 10° |
| 2026-05-04 13:45 | 45.41046 | 26.53901 | 26913 ft | 430 kts | 10° |
| 2026-05-04 13:46 | 45.44004 | 26.54654 | 27265 ft | 434 kts | 11° |
| 2026-05-04 13:46 | 45.46990 | 26.55415 | 27592 ft | 438 kts | 10° |
| 2026-05-04 13:46 | 45.50004 | 26.56189 | 27871 ft | 443 kts | 10° |
| 2026-05-04 13:46 | 45.53053 | 26.56971 | 28206 ft | 447 kts | 10° |
| 2026-05-04 13:47 | 45.56124 | 26.57757 | 28522 ft | 451 kts | 10° |
| 2026-05-04 13:47 | 45.59224 | 26.58555 | 28866 ft | 454 kts | 10° |
| 2026-05-04 13:47 | 45.62340 | 26.59359 | 29012 ft | 454 kts | 10° |
| 2026-05-04 13:47 | 45.65417 | 26.60154 | 29031 ft | 446 kts | 10° |
| 2026-05-04 13:48 | 45.71487 | 26.61717 | 29045 ft | 442 kts | 10° |
| 2026-05-04 13:48 | 45.77538 | 26.63276 | 29040 ft | 441 kts | 10° |
| 2026-05-04 13:49 | 45.83590 | 26.64839 | 29043 ft | 442 kts | 10° |
| 2026-05-04 13:49 | 45.89636 | 26.66414 | 29037 ft | 442 kts | 9° |
| 2026-05-04 13:50 | 45.95687 | 26.67992 | 29035 ft | 442 kts | 9° |
| 2026-05-04 13:50 | 46.01750 | 26.69569 | 29039 ft | 443 kts | 10° |
| 2026-05-04 13:51 | 46.07816 | 26.71151 | 29027 ft | 443 kts | 8° |
| 2026-05-04 13:51 | 46.13883 | 26.72739 | 29043 ft | 443 kts | 8° |
| 2026-05-04 13:52 | 46.22869 | 26.75551 | 29493 ft | 438 kts | 12° |
| 2026-05-04 13:52 | 46.25869 | 26.76458 | 29280 ft | 441 kts | 8° |
| 2026-05-04 13:53 | 46.28901 | 26.77142 | 29065 ft | 440 kts | 6° |
| 2026-05-04 13:53 | 46.34947 | 26.78351 | 28738 ft | 438 kts | 6° |
| 2026-05-04 13:54 | 46.40928 | 26.79759 | 28209 ft | 434 kts | 8° |
| 2026-05-04 13:54 | 46.43884 | 26.80576 | 27938 ft | 432 kts | 13° |
| 2026-05-04 13:54 | 46.49272 | 26.84163 | 27412 ft | 431 kts | 34° |
| 2026-05-04 13:55 | 46.51561 | 26.86958 | 27156 ft | 429 kts | 44° |
| 2026-05-04 13:55 | 46.54916 | 26.94039 | 26641 ft | 427 kts | 63° |
| 2026-05-04 13:55 | 46.56196 | 26.97913 | 26388 ft | 424 kts | 62° |
| 2026-05-04 13:56 | 46.57459 | 27.01754 | 26064 ft | 418 kts | 63° |
| 2026-05-04 13:56 | 46.58703 | 27.05551 | 25550 ft | 414 kts | 63° |
| 2026-05-04 13:56 | 46.61156 | 27.13029 | 24541 ft | 406 kts | 63° |
| 2026-05-04 13:57 | 46.62369 | 27.16718 | 24055 ft | 402 kts | 63° |
| 2026-05-04 13:57 | 46.63569 | 27.20373 | 23566 ft | 398 kts | 63° |
| 2026-05-04 13:58 | 46.67060 | 27.31084 | 22168 ft | 382 kts | 63° |
| 2026-05-04 13:58 | 46.69313 | 27.38000 | 21296 ft | 374 kts | 63° |
| 2026-05-04 13:58 | 46.70423 | 27.41403 | 20849 ft | 370 kts | 63° |
| 2026-05-04 13:59 | 46.71519 | 27.44770 | 20411 ft | 366 kts | 63° |
| 2026-05-04 13:59 | 46.72602 | 27.48107 | 19960 ft | 362 kts | 63° |
| 2026-05-04 13:59 | 46.74728 | 27.54682 | 19051 ft | 355 kts | 63° |
| 2026-05-04 14:00 | 46.75758 | 27.57881 | 18612 ft | 352 kts | 63° |
| 2026-05-04 14:00 | 46.77810 | 27.64265 | 17641 ft | 343 kts | 63° |
| 2026-05-04 14:00 | 46.78816 | 27.67395 | 17183 ft | 338 kts | 63° |
| 2026-05-04 14:01 | 46.79809 | 27.70477 | 16732 ft | 334 kts | 63° |
| 2026-05-04 14:01 | 46.80789 | 27.73524 | 16267 ft | 329 kts | 63° |
| 2026-05-04 14:01 | 46.82702 | 27.79500 | 15380 ft | 321 kts | 63° |
| 2026-05-04 14:02 | 46.83640 | 27.82437 | 14939 ft | 317 kts | 63° |
| 2026-05-04 14:02 | 46.84395 | 27.85475 | 14206 ft | 324 kts | 76° |
| 2026-05-04 14:02 | 46.84767 | 27.88765 | 13330 ft | 332 kts | 78° |
| 2026-05-04 14:02 | 46.85120 | 27.92140 | 12507 ft | 338 kts | 78° |
| 2026-05-04 14:03 | 46.85464 | 27.95509 | 12014 ft | 332 kts | 78° |
| 2026-05-04 14:03 | 46.85796 | 27.98815 | 11563 ft | 326 kts | 79° |
| 2026-05-04 14:03 | 46.86121 | 28.02065 | 11128 ft | 321 kts | 78° |
| 2026-05-04 14:03 | 46.86444 | 28.05268 | 10680 ft | 316 kts | 78° |
| 2026-05-04 14:04 | 46.87068 | 28.11403 | 10318 ft | 292 kts | 78° |
| 2026-05-04 14:04 | 46.87359 | 28.14276 | 10198 ft | 280 kts | 78° |
| 2026-05-04 14:04 | 46.87639 | 28.17042 | 10006 ft | 271 kts | 78° |
| 2026-05-04 14:05 | 46.88181 | 28.22409 | 9420 ft | 267 kts | 78° |
| 2026-05-04 14:05 | 46.88457 | 28.25107 | 8934 ft | 270 kts | 78° |
| 2026-05-04 14:05 | 46.88730 | 28.27820 | 8545 ft | 269 kts | 78° |
| 2026-05-04 14:06 | 46.89003 | 28.30544 | 8097 ft | 270 kts | 78° |
| 2026-05-04 14:06 | 46.89269 | 28.33214 | 7515 ft | 263 kts | 79° |
| 2026-05-04 14:06 | 46.89528 | 28.35831 | 6983 ft | 260 kts | 78° |
| 2026-05-04 14:06 | 46.89790 | 28.38457 | 6488 ft | 262 kts | 79° |
| 2026-05-04 14:07 | 46.90050 | 28.41095 | 5984 ft | 262 kts | 79° |
| 2026-05-04 14:07 | 46.90308 | 28.43727 | 5497 ft | 261 kts | 79° |
| 2026-05-04 14:07 | 46.90564 | 28.46359 | 5017 ft | 264 kts | 79° |
| 2026-05-04 14:07 | 46.90822 | 28.48995 | 4816 ft | 256 kts | 79° |
| 2026-05-04 14:08 | 46.91067 | 28.51514 | 4730 ft | 245 kts | 79° |
| 2026-05-04 14:08 | 46.91302 | 28.53932 | 4633 ft | 236 kts | 79° |
| 2026-05-04 14:08 | 46.91452 | 28.55479 | 4561 ft | 228 kts | 79° |
| 2026-05-04 14:08 | 46.91672 | 28.57727 | 4460 ft | 220 kts | 78° |
| 2026-05-04 14:09 | 46.92091 | 28.62167 | 4181 ft | 221 kts | 84° |
| 2026-05-04 14:09 | 46.92153 | 28.64412 | 3914 ft | 216 kts | 85° |
| 2026-05-04 14:10 | 46.92248 | 28.68653 | 3376 ft | 198 kts | 84° |
| 2026-05-04 14:10 | 46.92289 | 28.70558 | 3125 ft | 172 kts | 84° |
| 2026-05-04 14:10 | 46.92324 | 28.72180 | 2894 ft | 150 kts | 82° |
| 2026-05-04 14:10 | 46.92359 | 28.73673 | 2698 ft | 140 kts | 83° |
| 2026-05-04 14:11 | 46.92391 | 28.75080 | 2510 ft | 139 kts | 84° |
| 2026-05-04 14:11 | 46.92456 | 28.77915 | 2149 ft | 140 kts | 84° |
| 2026-05-04 14:11 | 46.92486 | 28.79321 | 1969 ft | 138 kts | 83° |
| 2026-05-04 14:12 | 46.92517 | 28.80723 | 1781 ft | 138 kts | 84° |
| 2026-05-04 14:12 | 46.92547 | 28.82124 | 1592 ft | 136 kts | 83° |
| 2026-05-04 14:12 | 46.92607 | 28.84912 | 1228 ft | 137 kts | 85° |
| 2026-05-04 14:13 | 46.92637 | 28.86291 | 1056 ft | 136 kts | 84° |
| 2026-05-04 14:13 | 46.92666 | 28.87659 | 856 ft | 135 kts | 86° |
| 2026-05-04 14:13 | 46.92696 | 28.89018 | 682 ft | 133 kts | 85° |
| 2026-05-04 14:13 | 46.92724 | 28.90380 | 526 ft | 134 kts | 85° |
| 2026-05-04 14:14 | 46.92753 | 28.91729 | 401 ft | 124 kts | 85° |
| 2026-05-04 14:14 | 46.92792 | 28.93552 | 337 ft | 44 kts | 89° |
| 2026-05-04 14:14 | 46.92797 | 28.93866 | 325 ft | 28 kts | 88° |
| 2026-05-04 14:15 | 46.92810 | 28.94453 | 315 ft | 30 kts | 88° |
| 2026-05-04 14:15 | 46.92822 | 28.95071 | 301 ft | 15 kts | 73° |
| 2026-05-04 14:16 | 46.92855 | 28.95107 | 309 ft | 4 kts | 21° |
| 2026-05-04 14:16 | 46.92907 | 28.95111 | 354 ft | 2 kts | 358° |
| 2026-05-04 14:17 | 46.92914 | 28.95110 | 364 ft | 1 kts | 357° |
| 2026-05-04 14:17 | 46.92945 | 28.95108 | 388 ft | 11 kts | 357° |
| 2026-05-04 14:17 | 46.93288 | 28.94914 | 375 ft | 21 kts | 317° |
| 2026-05-04 14:18 | 46.93316 | 28.94825 | 373 ft | 2 kts | 284° |
| 2026-05-04 14:18 | 46.93325 | 28.94778 | 372 ft | 5 kts | 285° |
| 2026-05-04 14:19 | 46.93343 | 28.94549 | 370 ft | 19 kts | 277° |
| 2026-05-04 14:19 | 46.93358 | 28.94326 | 363 ft | 24 kts | 273° |
| 2026-05-04 14:19 | 46.93374 | 28.94092 | 358 ft | 23 kts | 276° |
| 2026-05-04 14:19 | 46.93393 | 28.93852 | 356 ft | 23 kts | 273° |
| 2026-05-04 14:20 | 46.93405 | 28.93658 | 348 ft | 19 kts | 278° |
| 2026-05-04 14:20 | 46.93427 | 28.93443 | 346 ft | 20 kts | 279° |
| 2026-05-04 14:20 | 46.93440 | 28.93283 | 338 ft | 2 kts | 276° |
| 2026-05-04 14:21 | 46.93425 | 28.93237 | 332 ft | 1 kts | 208° |
| 2026-05-04 14:21 | 46.93417 | 28.93238 | 331 ft | 2 kts | 179° |
| 2026-05-04 14:21 | 46.93398 | 28.93237 | 332 ft | 0 kts | 182° |